createdAt,value
2018-05-11T00:00:15.881Z,15.65
2018-05-11T00:01:15.883Z,15.68
2018-05-11T00:02:15.896Z,15.80
2018-05-11T00:03:15.935Z,15.76
2018-05-11T00:04:15.935Z,15.82
2018-05-11T00:05:15.953Z,15.82
2018-05-11T00:06:15.971Z,15.68
2018-05-11T00:07:16.004Z,15.77
2018-05-11T00:08:16.039Z,15.37
2018-05-11T00:09:16.040Z,15.54
2018-05-11T00:10:16.053Z,15.67
2018-05-11T00:11:16.079Z,15.73
2018-05-11T00:12:16.131Z,15.61
2018-05-11T00:13:16.115Z,15.27
2018-05-11T00:14:16.154Z,15.24
2018-05-11T00:15:16.185Z,15.29
2018-05-11T00:16:16.169Z,15.27
2018-05-11T00:17:16.191Z,15.09
2018-05-11T00:18:16.365Z,15.07
2018-05-11T00:19:16.225Z,15.35
2018-05-11T00:20:16.251Z,15.35
2018-05-11T00:21:16.272Z,15.11
2018-05-11T00:22:16.289Z,15.06
2018-05-11T00:23:16.305Z,15.17
2018-05-11T00:24:16.333Z,15.33
2018-05-11T00:25:16.358Z,15.24
2018-05-11T00:26:16.419Z,14.94
2018-05-11T00:27:16.383Z,14.89
2018-05-11T00:28:16.410Z,14.84
2018-05-11T00:29:16.425Z,15.22
2018-05-11T00:30:16.451Z,15.47
2018-05-11T00:31:16.470Z,15.42
2018-05-11T00:32:16.501Z,15.40
2018-05-11T00:33:16.502Z,15.42
2018-05-11T00:34:16.536Z,15.65
2018-05-11T00:35:16.543Z,15.75
2018-05-11T00:36:16.569Z,15.77
2018-05-11T00:37:16.580Z,15.84
2018-05-11T00:38:16.603Z,15.77
2018-05-11T00:39:16.758Z,15.75
2018-05-11T00:40:16.661Z,15.73
2018-05-11T00:41:16.662Z,15.77
2018-05-11T00:42:16.685Z,15.80
2018-05-11T00:43:16.728Z,15.90
2018-05-11T00:44:16.724Z,15.92
2018-05-11T00:45:16.794Z,15.97
2018-05-11T00:46:16.759Z,15.91
2018-05-11T00:47:16.785Z,15.80
2018-05-11T00:48:16.793Z,15.91
2018-05-11T00:49:16.815Z,15.67
2018-05-11T00:50:16.836Z,15.70
2018-05-11T00:51:16.867Z,15.75
2018-05-11T00:52:16.887Z,15.75
2018-05-11T00:53:16.909Z,15.59
2018-05-11T00:54:16.922Z,15.62
2018-05-11T00:55:16.930Z,15.58
2018-05-11T00:56:16.952Z,15.58
2018-05-11T00:57:16.967Z,15.46
2018-05-11T00:58:16.985Z,15.51
2018-05-11T00:59:17.017Z,15.46
2018-05-11T01:00:17.039Z,15.58
2018-05-11T01:01:17.116Z,15.52
2018-05-11T01:02:17.139Z,15.40
2018-05-11T01:03:17.083Z,15.43
2018-05-11T01:04:17.121Z,15.29
2018-05-11T01:05:17.127Z,15.43
2018-05-11T01:06:17.153Z,15.58
2018-05-11T01:07:17.174Z,15.73
2018-05-11T01:08:17.192Z,15.77
2018-05-11T01:09:17.210Z,15.67
2018-05-11T01:10:17.226Z,15.79
2018-05-11T01:11:17.241Z,15.77
2018-05-11T01:12:17.258Z,15.64
2018-05-11T01:13:17.343Z,15.42
2018-05-11T01:14:17.308Z,15.49
2018-05-11T01:15:17.338Z,15.46
2018-05-11T01:16:17.363Z,15.51
2018-05-11T01:17:17.360Z,15.24
2018-05-11T01:18:17.376Z,14.92
2018-05-11T01:19:17.395Z,14.81
2018-05-11T01:20:17.427Z,14.88
2018-05-11T01:21:17.437Z,15.17
2018-05-11T01:22:17.468Z,15.42
2018-05-11T01:23:17.481Z,15.47
2018-05-11T01:24:17.499Z,15.31
2018-05-11T01:25:17.518Z,15.27
2018-05-11T01:26:17.542Z,15.24
2018-05-11T01:27:17.595Z,15.15
2018-05-11T01:28:17.633Z,15.18
2018-05-11T01:29:17.606Z,15.24
2018-05-11T01:30:17.647Z,15.21
2018-05-11T01:31:17.693Z,15.33
2018-05-11T01:32:17.650Z,15.31
2018-05-11T01:33:17.672Z,15.40
2018-05-11T01:34:17.689Z,15.42
2018-05-11T01:35:17.716Z,15.33
2018-05-11T01:36:17.807Z,15.31
2018-05-11T01:37:17.763Z,15.06
2018-05-11T01:38:17.772Z,14.84
2018-05-11T01:39:17.788Z,14.91
2018-05-11T01:40:17.808Z,14.86
2018-05-11T01:41:17.855Z,14.91
2018-05-11T01:42:17.905Z,14.89
2018-05-11T01:43:17.865Z,14.88
2018-05-11T01:44:17.889Z,15.03
2018-05-11T01:45:17.939Z,15.17
2018-05-11T01:46:17.930Z,15.15
2018-05-11T01:47:17.944Z,15.14
2018-05-11T01:48:18.048Z,15.06
2018-05-11T01:49:17.987Z,15.07
2018-05-11T01:50:18.085Z,15.00
2018-05-11T01:51:18.020Z,15.09
2018-05-11T01:52:18.055Z,15.29
2018-05-11T01:53:18.062Z,15.39
2018-05-11T01:54:18.189Z,15.61
2018-05-11T01:55:18.103Z,15.67
2018-05-11T01:56:18.118Z,15.70
2018-05-11T01:57:18.144Z,15.73
2018-05-11T01:58:18.214Z,15.68
2018-05-11T01:59:18.180Z,15.83
2018-05-11T02:00:18.198Z,15.82
2018-05-11T02:01:18.214Z,15.65
2018-05-11T02:02:18.247Z,15.62
2018-05-11T02:03:18.252Z,15.73
2018-05-11T02:04:18.308Z,15.57
2018-05-11T02:05:18.295Z,15.65
2018-05-11T02:06:18.478Z,15.77
2018-05-11T02:07:18.333Z,15.72
2018-05-11T02:08:18.363Z,15.83
2018-05-11T02:09:18.379Z,15.67
2018-05-11T02:10:18.394Z,15.64
2018-05-11T02:11:18.417Z,15.54
2018-05-11T02:12:18.453Z,15.55
2018-05-11T02:13:18.494Z,15.70
2018-05-11T02:14:18.475Z,15.82
2018-05-11T02:15:18.487Z,15.84
2018-05-11T02:16:18.514Z,15.80
2018-05-11T02:17:18.591Z,15.90
2018-05-11T02:18:18.581Z,15.73
2018-05-11T02:19:18.667Z,15.76
2018-05-11T02:20:18.659Z,15.64
2018-05-11T02:21:18.615Z,15.52
2018-05-11T02:22:18.626Z,15.62
2018-05-11T02:23:18.730Z,15.31
2018-05-11T02:24:18.666Z,15.33
2018-05-11T02:25:18.694Z,15.44
2018-05-11T02:26:18.704Z,15.42
2018-05-11T02:27:18.816Z,15.02
2018-05-11T02:28:18.845Z,15.19
2018-05-11T02:29:18.766Z,15.06
2018-05-11T02:30:18.786Z,15.06
2018-05-11T02:31:18.807Z,15.15
2018-05-11T02:32:18.879Z,15.21
2018-05-11T02:33:18.915Z,15.37
2018-05-11T02:34:18.867Z,15.44
2018-05-11T02:35:18.941Z,15.54
2018-05-11T02:36:18.908Z,15.40
2018-05-11T02:37:18.927Z,15.46
2018-05-11T02:38:18.938Z,15.49
2018-05-11T02:39:18.981Z,15.43
2018-05-11T02:40:18.983Z,15.52
2018-05-11T02:41:18.999Z,15.42
2018-05-11T02:42:19.056Z,15.49
2018-05-11T02:43:19.038Z,15.52
2018-05-11T02:44:19.102Z,15.44
2018-05-11T02:45:19.077Z,15.44
2018-05-11T02:46:19.095Z,15.37
2018-05-11T02:47:19.120Z,15.55
2018-05-11T02:48:19.133Z,15.52
2018-05-11T02:49:19.153Z,15.43
2018-05-11T02:50:19.171Z,15.42
2018-05-11T02:51:19.193Z,15.64
2018-05-11T02:52:19.212Z,15.51
2018-05-11T02:53:19.277Z,15.54
2018-05-11T02:54:19.254Z,15.44
2018-05-11T02:55:19.305Z,15.57
2018-05-11T02:56:19.305Z,15.40
2018-05-11T02:57:19.311Z,15.33
2018-05-11T02:58:19.329Z,15.17
2018-05-11T02:59:19.357Z,15.22
2018-05-11T03:00:19.388Z,15.33
2018-05-11T03:01:19.384Z,15.51
2018-05-11T03:02:19.411Z,15.64
2018-05-11T03:03:19.512Z,15.40
2018-05-11T03:04:19.552Z,15.24
2018-05-11T03:05:19.467Z,15.15
2018-05-11T03:06:19.481Z,15.35
2018-05-11T03:07:19.554Z,15.28
2018-05-11T03:08:19.527Z,15.31
2018-05-11T03:09:19.544Z,15.15
2018-05-11T03:10:19.568Z,15.15
2018-05-11T03:11:19.700Z,15.19
2018-05-11T03:12:19.600Z,15.21
2018-05-11T03:13:19.622Z,15.28
2018-05-11T03:14:19.639Z,15.19
2018-05-11T03:15:19.656Z,15.33
2018-05-11T03:16:19.689Z,15.22
2018-05-11T03:17:19.759Z,15.33
2018-05-11T03:18:19.730Z,15.36
2018-05-11T03:19:19.748Z,15.40
2018-05-11T03:20:19.763Z,15.37
2018-05-11T03:21:19.779Z,15.40
2018-05-11T03:22:19.842Z,15.28
2018-05-11T03:23:19.822Z,15.21
2018-05-11T03:24:19.837Z,15.33
2018-05-11T03:25:19.853Z,15.25
2018-05-11T03:26:19.870Z,15.21
2018-05-11T03:27:19.893Z,15.39
2018-05-11T03:28:19.911Z,15.39
2018-05-11T03:29:19.932Z,15.43
2018-05-11T03:30:19.959Z,15.37
2018-05-11T03:31:19.986Z,15.37
2018-05-11T03:32:19.988Z,15.47
2018-05-11T03:33:20.063Z,15.62
2018-05-11T03:34:20.108Z,15.61
2018-05-11T03:35:20.056Z,15.59
2018-05-11T03:36:20.078Z,15.54
2018-05-11T03:37:20.155Z,15.64
2018-05-11T03:38:20.103Z,15.62
2018-05-11T03:39:20.125Z,15.58
2018-05-11T03:40:20.146Z,15.70
2018-05-11T03:41:20.166Z,15.61
2018-05-11T03:42:20.255Z,15.55
2018-05-11T03:43:20.230Z,15.58
2018-05-11T03:44:20.239Z,15.58
2018-05-11T03:45:20.244Z,15.59
2018-05-11T03:46:20.257Z,15.59
2018-05-11T03:47:20.355Z,15.49
2018-05-11T03:48:20.309Z,15.51
2018-05-11T03:49:20.318Z,15.52
2018-05-11T03:50:20.335Z,15.61
2018-05-11T03:51:20.360Z,15.39
2018-05-11T03:52:20.518Z,15.51
2018-05-11T03:53:20.403Z,15.55
2018-05-11T03:54:20.481Z,15.51
2018-05-11T03:55:20.456Z,15.52
2018-05-11T03:56:20.462Z,15.55
2018-05-11T03:57:20.479Z,15.61
2018-05-11T03:58:20.513Z,15.33
2018-05-11T03:59:20.540Z,15.25
2018-05-11T04:00:20.548Z,15.40
2018-05-11T04:01:20.558Z,15.47
2018-05-11T04:02:20.573Z,15.57
2018-05-11T04:03:20.599Z,15.61
2018-05-11T04:04:20.618Z,15.54
2018-05-11T04:05:20.634Z,15.57
2018-05-11T04:06:20.841Z,15.59
2018-05-11T04:07:20.743Z,15.61
2018-05-11T04:08:20.693Z,15.73
2018-05-11T04:09:20.708Z,15.68
2018-05-11T04:10:20.865Z,15.68
2018-05-11T04:11:20.821Z,15.68
2018-05-11T04:12:20.770Z,15.68
2018-05-11T04:13:20.847Z,15.62
2018-05-11T04:14:20.853Z,15.75
2018-05-11T04:15:20.830Z,15.72
2018-05-11T04:16:20.846Z,15.70
2018-05-11T04:17:20.867Z,15.68
2018-05-11T04:18:20.890Z,15.54
2018-05-11T04:19:20.910Z,15.54
2018-05-11T04:20:20.997Z,15.62
2018-05-11T04:21:20.949Z,15.62
2018-05-11T04:22:20.962Z,15.61
2018-05-11T04:23:21.005Z,15.61
2018-05-11T04:24:21.111Z,15.61
2018-05-11T04:25:21.029Z,15.54
2018-05-11T04:26:21.122Z,15.65
2018-05-11T04:27:21.096Z,15.79
2018-05-11T04:28:21.099Z,15.80
2018-05-11T04:29:21.105Z,15.77
2018-05-11T04:30:21.126Z,15.58
2018-05-11T04:31:21.139Z,15.72
2018-05-11T04:32:21.162Z,15.73
2018-05-11T04:33:21.217Z,15.44
2018-05-11T04:34:21.196Z,15.57
2018-05-11T04:35:21.219Z,15.58
2018-05-11T04:36:21.308Z,15.65
2018-05-11T04:37:21.352Z,15.52
2018-05-11T04:38:21.280Z,15.59
2018-05-11T04:39:21.301Z,15.59
2018-05-11T04:40:21.323Z,15.75
2018-05-11T04:41:21.352Z,15.82
2018-05-11T04:42:21.360Z,15.55
2018-05-11T04:43:21.383Z,15.64
2018-05-11T04:44:21.399Z,15.62
2018-05-11T04:45:21.577Z,15.58
2018-05-11T04:46:21.541Z,15.43
2018-05-11T04:47:21.464Z,15.51
2018-05-11T04:48:21.472Z,15.65
2018-05-11T04:49:21.563Z,15.54
2018-05-11T04:50:21.518Z,15.68
2018-05-11T04:51:21.534Z,15.72
2018-05-11T04:52:21.553Z,15.70
2018-05-11T04:53:21.607Z,15.52
2018-05-11T04:54:21.597Z,15.57
2018-05-11T04:55:21.678Z,15.64
2018-05-11T04:56:21.682Z,15.58
2018-05-11T04:57:21.654Z,15.52
2018-05-11T04:58:21.676Z,15.54
2018-05-11T04:59:21.693Z,15.59
2018-05-11T05:00:21.707Z,15.68
2018-05-11T05:01:21.820Z,15.68
2018-05-11T05:02:21.759Z,15.62
2018-05-11T05:03:21.865Z,15.57
2018-05-11T05:04:21.821Z,15.62
2018-05-11T05:05:21.812Z,15.77
2018-05-11T05:06:21.871Z,15.73
2018-05-11T05:07:21.853Z,15.84
2018-05-11T05:08:21.873Z,15.95
2018-05-11T05:09:21.888Z,15.82
2018-05-11T05:10:22.066Z,15.82
2018-05-11T05:11:21.950Z,15.52
2018-05-11T05:12:22.035Z,15.58
2018-05-11T05:13:22.013Z,15.58
2018-05-11T05:14:21.988Z,15.57
2018-05-11T05:15:22.031Z,15.64
2018-05-11T05:16:22.028Z,15.73
2018-05-11T05:17:22.124Z,15.77
2018-05-11T05:18:22.074Z,15.54
2018-05-11T05:19:22.244Z,15.70
2018-05-11T05:20:22.105Z,15.95
2018-05-11T05:21:22.266Z,16.04
2018-05-11T05:22:22.295Z,16.08
2018-05-11T05:23:22.166Z,16.12
2018-05-11T05:24:22.182Z,15.55
2018-05-11T05:25:22.314Z,15.70
2018-05-11T05:26:22.257Z,15.79
2018-05-11T05:27:22.341Z,15.86
2018-05-11T05:28:22.315Z,15.90
2018-05-11T05:29:22.299Z,15.84
2018-05-11T05:30:22.299Z,15.91
2018-05-11T05:31:22.319Z,15.98
2018-05-11T05:32:22.342Z,16.12
2018-05-11T05:33:22.359Z,16.24
2018-05-11T05:34:22.407Z,16.36
2018-05-11T05:35:22.410Z,16.28
2018-05-11T05:36:22.419Z,16.35
2018-05-11T05:37:22.445Z,15.97
2018-05-11T05:38:22.456Z,15.94
2018-05-11T05:39:22.525Z,16.32
2018-05-11T05:40:22.506Z,16.20
2018-05-11T05:41:22.521Z,16.13
2018-05-11T05:42:22.537Z,16.10
2018-05-11T05:43:22.577Z,16.05
2018-05-11T05:44:22.583Z,16.04
2018-05-11T05:45:22.596Z,15.98
2018-05-11T05:46:22.663Z,16.15
2018-05-11T05:47:22.635Z,16.12
2018-05-11T05:48:22.661Z,16.02
2018-05-11T05:49:22.687Z,16.00
2018-05-11T05:50:22.697Z,16.10
2018-05-11T05:51:22.835Z,16.16
2018-05-11T05:52:22.734Z,16.16
2018-05-11T05:53:22.756Z,16.29
2018-05-11T05:54:22.778Z,16.28
2018-05-11T05:55:22.795Z,16.35
2018-05-11T05:56:22.892Z,16.02
2018-05-11T05:57:22.836Z,16.00
2018-05-11T05:58:22.921Z,16.05
2018-05-11T05:59:22.878Z,16.32
2018-05-11T06:00:22.939Z,16.38
2018-05-11T06:01:22.916Z,16.49
2018-05-11T06:02:22.990Z,16.58
2018-05-11T06:03:22.960Z,16.58
2018-05-11T06:04:22.984Z,16.69
2018-05-11T06:05:22.992Z,16.71
2018-05-11T06:06:23.028Z,16.84
2018-05-11T06:07:23.169Z,16.81
2018-05-11T06:08:23.052Z,16.72
2018-05-11T06:09:23.104Z,16.84
2018-05-11T06:10:23.096Z,16.79
2018-05-11T06:11:23.121Z,16.69
2018-05-11T06:12:23.138Z,16.60
2018-05-11T06:13:23.157Z,16.74
2018-05-11T06:14:23.200Z,16.93
2018-05-11T06:15:23.347Z,16.84
2018-05-11T06:16:23.282Z,17.01
2018-05-11T06:17:23.241Z,17.04
2018-05-11T06:18:23.302Z,16.99
2018-05-11T06:19:23.276Z,17.16
2018-05-11T06:20:23.295Z,17.23
2018-05-11T06:21:23.310Z,17.24
2018-05-11T06:22:23.337Z,17.20
2018-05-11T06:23:23.357Z,17.24
2018-05-11T06:24:23.563Z,17.27
2018-05-11T06:25:23.395Z,17.48
2018-05-11T06:26:23.445Z,17.23
2018-05-11T06:27:23.436Z,17.36
2018-05-11T06:28:23.462Z,17.11
2018-05-11T06:29:23.484Z,17.15
2018-05-11T06:30:23.527Z,17.26
2018-05-11T06:31:23.524Z,17.46
2018-05-11T06:32:23.647Z,17.36
2018-05-11T06:33:23.560Z,17.29
2018-05-11T06:34:23.672Z,17.22
2018-05-11T06:35:23.740Z,17.24
2018-05-11T06:36:23.620Z,17.44
2018-05-11T06:37:23.727Z,17.38
2018-05-11T06:38:23.792Z,17.27
2018-05-11T06:39:23.683Z,17.46
2018-05-11T06:40:23.707Z,17.65
2018-05-11T06:41:23.738Z,17.64
2018-05-11T06:42:23.763Z,17.27
2018-05-11T06:43:23.768Z,17.36
2018-05-11T06:44:23.792Z,17.42
2018-05-11T06:45:23.820Z,17.60
2018-05-11T06:46:23.828Z,17.71
2018-05-11T06:47:23.897Z,17.80
2018-05-11T06:48:23.872Z,17.82
2018-05-11T06:49:23.925Z,17.78
2018-05-11T06:50:23.916Z,17.68
2018-05-11T06:51:23.933Z,17.71
2018-05-11T06:52:23.956Z,17.63
2018-05-11T06:53:23.977Z,17.59
2018-05-11T06:54:24.069Z,17.83
2018-05-11T06:55:24.029Z,17.87
2018-05-11T06:56:24.146Z,17.82
2018-05-11T06:57:24.160Z,17.83
2018-05-11T06:58:24.077Z,18.04
2018-05-11T06:59:24.120Z,18.04
2018-05-11T07:00:24.184Z,18.00
2018-05-11T07:01:24.145Z,18.04
2018-05-11T07:02:24.168Z,17.90
2018-05-11T07:03:24.177Z,18.04
2018-05-11T07:04:24.205Z,18.10
2018-05-11T07:05:24.262Z,17.83
2018-05-11T07:06:24.239Z,17.95
2018-05-11T07:07:24.479Z,18.04
2018-05-11T07:08:24.285Z,17.67
2018-05-11T07:09:24.302Z,18.07
2018-05-11T07:10:24.404Z,18.01
2018-05-11T07:11:24.345Z,17.83
2018-05-11T07:12:24.371Z,17.90
2018-05-11T07:13:24.468Z,17.82
2018-05-11T07:14:24.410Z,17.90
2018-05-11T07:15:24.466Z,18.03
2018-05-11T07:16:24.458Z,17.71
2018-05-11T07:17:24.466Z,17.68
2018-05-11T07:18:24.518Z,17.95
2018-05-11T07:19:24.526Z,18.04
2018-05-11T07:20:24.619Z,18.05
2018-05-11T07:21:24.552Z,18.04
2018-05-11T07:22:24.633Z,18.19
2018-05-11T07:23:24.597Z,18.07
2018-05-11T07:24:24.619Z,18.07
2018-05-11T07:25:24.680Z,18.07
2018-05-11T07:26:24.667Z,18.04
2018-05-11T07:27:24.679Z,17.97
2018-05-11T07:28:24.729Z,18.03
2018-05-11T07:29:24.723Z,17.78
2018-05-11T07:30:24.838Z,17.65
2018-05-11T07:31:24.810Z,17.76
2018-05-11T07:32:24.780Z,17.42
2018-05-11T07:33:24.805Z,17.57
2018-05-11T07:34:24.820Z,17.41
2018-05-11T07:35:24.904Z,17.48
2018-05-11T07:36:24.870Z,17.59
2018-05-11T07:37:24.907Z,17.39
2018-05-11T07:38:24.969Z,17.30
2018-05-11T07:39:24.922Z,17.49
2018-05-11T07:40:24.951Z,17.42
2018-05-11T07:41:24.962Z,17.45
2018-05-11T07:42:24.989Z,17.57
2018-05-11T07:43:25.152Z,17.52
2018-05-11T07:44:25.030Z,17.49
2018-05-11T07:45:25.102Z,17.33
2018-05-11T07:46:25.069Z,17.27
2018-05-11T07:47:25.103Z,17.20
2018-05-11T07:48:25.112Z,17.24
2018-05-11T07:49:25.132Z,17.26
2018-05-11T07:50:25.152Z,17.30
2018-05-11T07:51:25.178Z,17.48
2018-05-11T07:52:25.201Z,17.12
2018-05-11T07:53:25.260Z,16.97
2018-05-11T07:54:25.242Z,17.09
2018-05-11T07:55:25.277Z,17.09
2018-05-11T07:56:25.282Z,17.01
2018-05-11T07:57:25.293Z,16.90
2018-05-11T07:58:25.323Z,16.93
2018-05-11T07:59:25.330Z,16.72
2018-05-11T08:00:25.351Z,16.94
2018-05-11T08:01:25.377Z,16.90
2018-05-11T08:02:25.400Z,17.02
2018-05-11T08:03:25.418Z,17.04
2018-05-11T08:04:25.441Z,16.71
2018-05-11T08:05:25.454Z,16.60
2018-05-11T08:06:25.556Z,16.53
2018-05-11T08:07:25.494Z,16.64
2018-05-11T08:08:25.527Z,16.90
2018-05-11T08:09:25.558Z,16.84
2018-05-11T08:10:25.599Z,16.89
2018-05-11T08:11:25.628Z,16.99
2018-05-11T08:12:25.609Z,17.08
2018-05-11T08:13:25.620Z,17.08
2018-05-11T08:14:25.811Z,17.24
2018-05-11T08:15:25.660Z,16.94
2018-05-11T08:16:25.790Z,16.83
2018-05-11T08:17:25.694Z,16.91
2018-05-11T08:18:25.714Z,16.93
2018-05-11T08:19:25.737Z,17.02
2018-05-11T08:20:25.756Z,16.84
2018-05-11T08:21:25.855Z,16.74
2018-05-11T08:22:25.793Z,16.84
2018-05-11T08:23:25.939Z,16.84
2018-05-11T08:24:25.883Z,16.66
2018-05-11T08:25:25.878Z,16.69
2018-05-11T08:26:25.872Z,16.87
2018-05-11T08:27:25.902Z,16.87
2018-05-11T08:28:25.918Z,17.15
2018-05-11T08:29:25.946Z,16.99
2018-05-11T08:30:25.968Z,17.14
2018-05-11T08:31:25.980Z,17.26
2018-05-11T08:32:25.997Z,17.57
2018-05-11T08:33:26.126Z,17.71
2018-05-11T08:34:26.077Z,17.46
2018-05-11T08:35:26.056Z,17.67
2018-05-11T08:36:26.153Z,17.86
2018-05-11T08:37:26.141Z,17.98
2018-05-11T08:38:26.152Z,18.00
2018-05-11T08:39:26.141Z,18.03
2018-05-11T08:40:26.157Z,18.08
2018-05-11T08:41:26.200Z,18.07
2018-05-11T08:42:26.203Z,18.37
2018-05-11T08:43:26.231Z,18.28
2018-05-11T08:44:26.256Z,18.37
2018-05-11T08:45:26.359Z,18.26
2018-05-11T08:46:26.449Z,18.33
2018-05-11T08:47:26.337Z,18.45
2018-05-11T08:48:26.451Z,18.35
2018-05-11T08:49:26.348Z,18.53
2018-05-11T08:50:26.366Z,18.55
2018-05-11T08:51:26.430Z,18.58
2018-05-11T08:52:26.411Z,18.44
2018-05-11T08:53:26.429Z,18.53
2018-05-11T08:54:26.452Z,18.68
2018-05-11T08:55:26.471Z,18.68
2018-05-11T08:56:26.538Z,18.66
2018-05-11T08:57:26.515Z,18.59
2018-05-11T08:58:26.531Z,18.47
2018-05-11T08:59:26.556Z,18.43
2018-05-11T09:00:26.580Z,18.56
2018-05-11T09:01:26.597Z,18.58
2018-05-11T09:02:26.621Z,18.66
2018-05-11T09:03:26.734Z,18.53
2018-05-11T09:04:26.749Z,18.34
2018-05-11T09:05:26.681Z,18.28
2018-05-11T09:06:26.704Z,18.56
2018-05-11T09:07:26.723Z,18.56
2018-05-11T09:08:26.748Z,18.66
2018-05-11T09:09:26.773Z,18.75
2018-05-11T09:10:26.831Z,18.44
2018-05-11T09:11:26.810Z,18.53
2018-05-11T09:12:26.935Z,18.10
2018-05-11T09:13:26.871Z,18.04
2018-05-11T09:14:26.935Z,18.29
2018-05-11T09:15:26.897Z,18.41
2018-05-11T09:16:26.954Z,18.43
2018-05-11T09:17:26.963Z,18.40
2018-05-11T09:18:26.962Z,18.37
2018-05-11T09:19:27.032Z,17.86
2018-05-11T09:20:27.046Z,17.83
2018-05-11T09:21:27.078Z,17.92
2018-05-11T09:22:27.037Z,18.13
2018-05-11T09:23:27.087Z,18.31
2018-05-11T09:24:27.086Z,18.37
2018-05-11T09:25:27.111Z,18.08
2018-05-11T09:26:27.130Z,18.10
2018-05-11T09:27:27.163Z,18.22
2018-05-11T09:28:27.271Z,18.08
2018-05-11T09:29:27.227Z,18.25
2018-05-11T09:30:27.206Z,18.25
2018-05-11T09:31:27.234Z,18.07
2018-05-11T09:32:27.249Z,18.04
2018-05-11T09:33:27.271Z,18.08
2018-05-11T09:34:27.289Z,18.01
2018-05-11T09:35:27.386Z,17.92
2018-05-11T09:36:27.329Z,17.92
2018-05-11T09:37:27.396Z,17.59
2018-05-11T09:38:27.376Z,17.59
2018-05-11T09:39:27.484Z,17.70
2018-05-11T09:40:27.450Z,18.10
2018-05-11T09:41:27.437Z,18.00
2018-05-11T09:42:27.470Z,17.42
2018-05-11T09:43:27.496Z,17.49
2018-05-11T09:44:27.551Z,17.24
2018-05-11T09:45:27.516Z,17.46
2018-05-11T09:46:27.545Z,17.38
2018-05-11T09:47:27.688Z,17.46
2018-05-11T09:48:27.580Z,17.89
2018-05-11T09:49:27.670Z,17.46
2018-05-11T09:50:27.624Z,17.36
2018-05-11T09:51:27.713Z,17.29
2018-05-11T09:52:27.733Z,17.31
2018-05-11T09:53:27.692Z,17.33
2018-05-11T09:54:27.705Z,17.12
2018-05-11T09:55:27.720Z,17.01
2018-05-11T09:56:27.784Z,17.02
2018-05-11T09:57:27.766Z,16.96
2018-05-11T09:58:27.858Z,17.29
2018-05-11T09:59:27.808Z,17.51
2018-05-11T10:00:27.824Z,17.86
2018-05-11T10:01:27.994Z,18.03
2018-05-11T10:02:27.868Z,17.42
2018-05-11T10:03:27.899Z,17.06
2018-05-11T10:04:27.917Z,17.12
2018-05-11T10:05:27.976Z,17.54
2018-05-11T10:06:27.947Z,17.83
2018-05-11T10:07:27.972Z,18.26
2018-05-11T10:08:28.000Z,18.26
2018-05-11T10:09:28.009Z,18.34
2018-05-11T10:10:28.034Z,17.90
2018-05-11T10:11:28.060Z,18.00
2018-05-11T10:12:28.080Z,18.26
2018-05-11T10:13:28.093Z,18.44
2018-05-11T10:14:28.120Z,18.28
2018-05-11T10:15:28.276Z,18.80
2018-05-11T10:16:28.159Z,19.16
2018-05-11T10:17:28.177Z,18.66
2018-05-11T10:18:28.198Z,18.28
2018-05-11T10:19:28.223Z,18.00
2018-05-11T10:20:28.273Z,18.68
2018-05-11T10:21:28.261Z,19.11
2018-05-11T10:22:28.305Z,19.08
2018-05-11T10:23:28.359Z,19.30
2018-05-11T10:24:28.331Z,19.85
2018-05-11T10:25:28.410Z,20.21
2018-05-11T10:26:28.365Z,20.50
2018-05-11T10:27:28.444Z,20.65
2018-05-11T10:28:28.454Z,20.43
2018-05-11T10:29:28.436Z,20.21
2018-05-11T10:30:28.458Z,19.86
2018-05-11T10:31:28.472Z,19.51
2018-05-11T10:32:28.501Z,19.59
2018-05-11T10:33:28.523Z,19.76
2018-05-11T10:34:28.553Z,19.79
2018-05-11T10:35:28.569Z,19.64
2018-05-11T10:36:28.586Z,19.86
2018-05-11T10:37:28.664Z,20.52
2018-05-11T10:38:28.632Z,20.82
2018-05-11T10:39:28.657Z,20.41
2018-05-11T10:40:28.671Z,19.95
2018-05-11T10:41:28.837Z,19.76
2018-05-11T10:42:28.721Z,20.28
2018-05-11T10:43:28.866Z,20.92
2018-05-11T10:44:28.850Z,21.40
2018-05-11T10:45:28.803Z,21.51
2018-05-11T10:46:28.824Z,21.64
2018-05-11T10:47:28.832Z,21.75
2018-05-11T10:48:28.921Z,21.88
2018-05-11T10:49:28.937Z,21.92
2018-05-11T10:50:28.912Z,22.00
2018-05-11T10:51:28.921Z,22.00
2018-05-11T10:52:28.973Z,21.29
2018-05-11T10:53:28.981Z,20.96
2018-05-11T10:54:29.012Z,21.48
2018-05-11T10:55:29.019Z,20.69
2018-05-11T10:56:29.037Z,20.97
2018-05-11T10:57:29.100Z,21.66
2018-05-11T10:58:29.209Z,22.20
2018-05-11T10:59:29.162Z,21.72
2018-05-11T11:00:29.135Z,21.72
2018-05-11T11:01:29.147Z,21.51
2018-05-11T11:02:29.236Z,21.61
2018-05-11T11:03:29.210Z,21.15
2018-05-11T11:04:29.223Z,21.36
2018-05-11T11:05:29.302Z,21.20
2018-05-11T11:06:29.261Z,22.25
2018-05-11T11:07:29.327Z,22.54
2018-05-11T11:08:29.373Z,23.18
2018-05-11T11:09:29.333Z,23.10
2018-05-11T11:10:29.357Z,22.35
2018-05-11T11:11:29.376Z,22.57
2018-05-11T11:12:29.399Z,22.60
2018-05-11T11:13:29.447Z,22.08
2018-05-11T11:14:29.507Z,22.00
2018-05-11T11:15:29.470Z,22.00
2018-05-11T11:16:29.493Z,21.93
2018-05-11T11:17:29.521Z,21.99
2018-05-11T11:18:29.537Z,21.91
2018-05-11T11:19:29.580Z,22.20
2018-05-11T11:20:29.585Z,22.83
2018-05-11T11:21:29.616Z,22.17
2018-05-11T11:22:29.633Z,21.77
2018-05-11T11:23:29.657Z,21.58
2018-05-11T11:24:29.683Z,21.42
2018-05-11T11:25:29.807Z,21.76
2018-05-11T11:26:29.837Z,22.10
2018-05-11T11:27:29.829Z,22.96
2018-05-11T11:28:29.776Z,22.84
2018-05-11T11:29:29.906Z,22.83
2018-05-11T11:30:29.843Z,22.85
2018-05-11T11:31:29.848Z,22.73
2018-05-11T11:32:29.868Z,22.53
2018-05-11T11:33:29.890Z,22.59
2018-05-11T11:34:29.951Z,22.26
2018-05-11T11:35:30.047Z,22.20
2018-05-11T11:36:30.096Z,22.53
2018-05-11T11:37:30.070Z,21.98
2018-05-11T11:38:30.012Z,21.62
2018-05-11T11:39:30.159Z,21.51
2018-05-11T11:40:30.201Z,21.27
2018-05-11T11:41:30.080Z,21.21
2018-05-11T11:42:30.096Z,21.98
2018-05-11T11:43:30.131Z,22.73
2018-05-11T11:44:30.257Z,22.29
2018-05-11T11:45:30.177Z,21.98
2018-05-11T11:46:30.191Z,20.90
2018-05-11T11:47:30.227Z,21.00
2018-05-11T11:48:30.238Z,21.07
2018-05-11T11:49:30.268Z,21.14
2018-05-11T11:50:30.290Z,20.74
2018-05-11T11:51:30.310Z,20.95
2018-05-11T11:52:30.331Z,21.18
2018-05-11T11:53:30.355Z,21.82
2018-05-11T11:54:30.383Z,22.39
2018-05-11T11:55:30.454Z,22.59
2018-05-11T11:56:30.563Z,22.55
2018-05-11T11:57:30.442Z,22.73
2018-05-11T11:58:30.474Z,22.85
2018-05-11T11:59:30.489Z,22.73
2018-05-11T12:00:30.642Z,22.69
2018-05-11T12:01:30.557Z,22.73
2018-05-11T12:02:30.563Z,23.12
2018-05-11T12:03:30.585Z,22.93
2018-05-11T12:04:30.609Z,23.36
2018-05-11T12:05:30.628Z,23.31
2018-05-11T12:06:30.656Z,23.41
2018-05-11T12:07:30.748Z,23.15
2018-05-11T12:08:30.845Z,23.43
2018-05-11T12:09:30.829Z,23.86
2018-05-11T12:10:30.750Z,23.13
2018-05-11T12:11:30.770Z,22.48
2018-05-11T12:12:30.794Z,22.45
2018-05-11T12:13:30.931Z,22.04
2018-05-11T12:14:30.846Z,22.13
2018-05-11T12:15:30.870Z,22.17
2018-05-11T12:16:30.889Z,21.85
2018-05-11T12:17:30.929Z,21.76
2018-05-11T12:18:30.934Z,22.35
2018-05-11T12:19:30.958Z,22.62
2018-05-11T12:20:30.982Z,22.75
2018-05-11T12:21:31.002Z,22.84
2018-05-11T12:22:31.028Z,23.20
2018-05-11T12:23:31.096Z,23.21
2018-05-11T12:24:31.087Z,23.27
2018-05-11T12:25:31.095Z,23.37
2018-05-11T12:26:31.188Z,22.66
2018-05-11T12:27:31.149Z,22.32
2018-05-11T12:28:31.297Z,21.96
2018-05-11T12:29:31.215Z,22.02
2018-05-11T12:30:31.304Z,21.73
2018-05-11T12:31:31.232Z,21.83
2018-05-11T12:32:31.262Z,22.45
2018-05-11T12:33:31.394Z,22.66
2018-05-11T12:34:31.306Z,23.28
2018-05-11T12:35:31.331Z,23.10
2018-05-11T12:36:31.348Z,22.88
2018-05-11T12:37:31.373Z,22.94
2018-05-11T12:38:31.395Z,22.78
2018-05-11T12:39:31.522Z,22.51
2018-05-11T12:40:31.466Z,22.41
2018-05-11T12:41:31.464Z,22.70
2018-05-11T12:42:31.488Z,22.62
2018-05-11T12:43:31.533Z,22.53
2018-05-11T12:44:31.545Z,22.41
2018-05-11T12:45:31.562Z,21.77
2018-05-11T12:46:31.632Z,22.11
2018-05-11T12:47:31.602Z,22.35
2018-05-11T12:48:31.668Z,21.93
2018-05-11T12:49:31.648Z,21.93
2018-05-11T12:50:31.792Z,22.35
2018-05-11T12:51:31.729Z,22.48
2018-05-11T12:52:31.748Z,22.63